Hauptseite
METAR-TAF:

METAR-TAF

Flughäfen :

Oslo, Norwegen

Flughafen Oslo-Gardermoen

Breite: 60-12N, Länge: 011-05E, Höhe: 208 m

Beobachtung

Neuester Wetterbericht von vor 28 Minuten, um 14:20 UTC
Wind 6 kt aus Süd, variierte zwischen Süd/Südost und Südwest
Temperatur 2°C
Luftfeuchtigkeit 69%
Luftdruck 997 hPa
Sichtweite 10 km oder mehr
Leicht bewölkt in der Höhe von 2800 ft

METAR: ENGM 241420Z 19006KT 160V230 9999 FEW028 02/M03 Q0997 NOSIG

Zeit: 15:48 (14:48 UTC)

Prognose

Gültige Prognose vom 24 um 12 UTC bis 25 um 12 UTC
Wind 8 kt aus Süd
Sichtweite 10 km oder mehr
keine Wolken unter 1500 m und keine Kumulonimbus oder Gewitterwolken
Wahrscheinlichkeit 40%
vom 25 um 03 UTC bis 25 um 08 UTC
Sichtweite: 0800 m
in der Höhe von 100 ft
Gefrierender Nebel

TAF: ENGM 2412/2512 18008KT CAVOK PROB40 2503/2508 0800 FZFG VV001

Wetterbeobachtungen und Prognosen von mehr als 4000 Flughäfen (METAR und TAF Bericht).

Die verfügbaren Stationen werden durch gelbe und rote Markierungen auf der Karte dargestellt.

Führen Sie die Maus auf sie, um den Namen der Station zu sehen.

Darauf klicken, um die Beobachtung von Wetterbeobachtungen und Prognosen zu sehen.

Um die Karte zu ändern : klicken Sie auf den grünen Tasten mit einem schwarzen Kreuz Zum Vergrößern, auf den grünen Button mit einem Gedankenstrich zu verkleinern, oder auf die grünen Pfeile für benachbarte Karten.


METAR-TAF: